sensor_id;sensor_type;location;lat;lon;timestamp;pressure;altitude;pressure_sealevel;temperature;humidity
53689;BME280;39583;54.682;30.662;2023-02-19T07:32:14;97582.66;;;1.99;94.10
53689;BME280;39583;54.682;30.662;2023-02-19T07:34:41;97593.16;;;2.19;93.64
53689;BME280;39583;54.682;30.662;2023-02-19T07:37:07;97602.69;;;2.33;93.76
53689;BME280;39583;54.682;30.662;2023-02-19T07:39:33;97592.63;;;2.42;93.74
53689;BME280;39583;54.682;30.662;2023-02-19T07:41:59;97593.28;;;2.37;91.96
53689;BME280;39583;54.682;30.662;2023-02-19T07:44:26;97601.25;;;2.37;92.56
53689;BME280;39583;54.682;30.662;2023-02-19T07:46:52;97596.34;;;2.34;92.35
53689;BME280;39583;54.682;30.662;2023-02-19T07:49:18;97594.91;;;2.38;92.61
53689;BME280;39583;54.682;30.662;2023-02-19T07:51:44;97590.63;;;2.37;92.05
53689;BME280;39583;54.682;30.662;2023-02-19T07:54:10;97591.25;;;2.32;90.77
53689;BME280;39583;54.682;30.662;2023-02-19T07:56:36;97603.31;;;2.35;90.83
53689;BME280;39583;54.682;30.662;2023-02-19T07:59:02;97596.53;;;2.39;90.56
53689;BME280;39583;54.682;30.662;2023-02-19T08:01:29;97600.38;;;2.43;88.11
53689;BME280;39583;54.682;30.662;2023-02-19T08:04:30;97591.88;;;2.34;87.77
53689;BME280;39583;54.682;30.662;2023-02-19T08:06:56;97590.63;;;2.37;88.74
53689;BME280;39583;54.682;30.662;2023-02-19T08:09:22;97606.50;;;2.44;87.99
53689;BME280;39583;54.682;30.662;2023-02-19T08:11:48;97598.75;;;2.49;88.30
53689;BME280;39583;54.682;30.662;2023-02-19T08:14:33;97597.06;;;2.54;88.38
53689;BME280;39583;54.682;30.662;2023-02-19T08:16:59;97587.84;;;2.57;87.00
53689;BME280;39583;54.682;30.662;2023-02-19T08:19:25;97582.31;;;2.58;85.35
53689;BME280;39583;54.682;30.662;2023-02-19T08:21:51;97595.13;;;2.68;84.36
53689;BME280;39583;54.682;30.662;2023-02-19T08:24:18;97587.13;;;2.75;83.55
53689;BME280;39583;54.682;30.662;2023-02-19T08:26:44;97598.94;;;2.79;84.37
53689;BME280;39583;54.682;30.662;2023-02-19T08:29:10;97595.91;;;2.75;83.77
53689;BME280;39583;54.682;30.662;2023-02-19T08:31:36;97591.22;;;2.71;84.01
53689;BME280;39583;54.682;30.662;2023-02-19T08:34:02;97592.53;;;2.61;83.87
53689;BME280;39583;54.682;30.662;2023-02-19T08:36:28;97593.34;;;2.62;83.69
53689;BME280;39583;54.682;30.662;2023-02-19T08:38:54;97569.69;;;2.54;83.45
53689;BME280;39583;54.682;30.662;2023-02-19T08:41:20;97595.78;;;2.63;83.78
53689;BME280;39583;54.682;30.662;2023-02-19T08:43:46;97599.69;;;2.61;82.54
53689;BME280;39583;54.682;30.662;2023-02-19T08:46:13;97594.56;;;2.59;83.13
53689;BME280;39583;54.682;30.662;2023-02-19T08:48:39;97601.53;;;2.85;84.17
53689;BME280;39583;54.682;30.662;2023-02-19T08:51:08;97602.44;;;3.04;83.75
53689;BME280;39583;54.682;30.662;2023-02-19T08:53:37;97594.13;;;2.94;82.08
53689;BME280;39583;54.682;30.662;2023-02-19T08:56:08;97602.16;;;2.87;81.75
53689;BME280;39583;54.682;30.662;2023-02-19T08:58:34;97605.19;;;2.91;82.36
53689;BME280;39583;54.682;30.662;2023-02-19T09:01:06;97609.84;;;2.95;81.18
53689;BME280;39583;54.682;30.662;2023-02-19T09:03:32;97605.56;;;2.94;81.09
53689;BME280;39583;54.682;30.662;2023-02-19T09:05:58;97612.13;;;2.92;80.53
53689;BME280;39583;54.682;30.662;2023-02-19T09:08:24;97622.56;;;2.93;79.60
53689;BME280;39583;54.682;30.662;2023-02-19T09:10:59;97609.91;;;2.89;79.88
53689;BME280;39583;54.682;30.662;2023-02-19T09:13:26;97611.53;;;2.90;80.25
53689;BME280;39583;54.682;30.662;2023-02-19T09:15:52;97604.97;;;2.92;80.02
53689;BME280;39583;54.682;30.662;2023-02-19T09:18:19;97614.06;;;2.78;77.58
53689;BME280;39583;54.682;30.662;2023-02-19T09:20:45;97615.94;;;2.71;77.48
53689;BME280;39583;54.682;30.662;2023-02-19T09:23:11;97615.56;;;2.67;78.11
53689;BME280;39583;54.682;30.662;2023-02-19T09:25:37;97615.56;;;2.67;78.51
53689;BME280;39583;54.682;30.662;2023-02-19T09:28:03;97612.16;;;2.60;78.09
53689;BME280;39583;54.682;30.662;2023-02-19T09:30:29;97624.72;;;2.78;77.39
53689;BME280;39583;54.682;30.662;2023-02-19T09:32:55;97645.69;;;2.86;76.16
53689;BME280;39583;54.682;30.662;2023-02-19T09:35:21;97633.56;;;2.97;76.43
53689;BME280;39583;54.682;30.662;2023-02-19T09:37:47;97635.19;;;2.98;75.21
53689;BME280;39583;54.682;30.662;2023-02-19T09:40:13;97639.88;;;3.03;76.37
53689;BME280;39583;54.682;30.662;2023-02-19T09:42:47;97634.28;;;3.11;76.04
53689;BME280;39583;54.682;30.662;2023-02-19T09:45:20;97638.84;;;3.29;75.44
53689;BME280;39583;54.682;30.662;2023-02-19T09:47:47;97646.19;;;3.51;76.84
53689;BME280;39583;54.682;30.662;2023-02-19T09:50:17;97645.19;;;3.71;76.64
53689;BME280;39583;54.682;30.662;2023-02-19T09:52:51;97646.38;;;3.75;74.69
53689;BME280;39583;54.682;30.662;2023-02-19T09:55:34;97643.22;;;3.66;74.47
53689;BME280;39583;54.682;30.662;2023-02-19T09:58:07;97652.09;;;3.78;74.98
53689;BME280;39583;54.682;30.662;2023-02-19T10:00:39;97665.31;;;3.67;73.89
53689;BME280;39583;54.682;30.662;2023-02-19T10:03:20;97654.09;;;3.40;72.73
53689;BME280;39583;54.682;30.662;2023-02-19T10:05:46;97646.72;;;3.17;71.59
53689;BME280;39583;54.682;30.662;2023-02-19T10:08:17;97659.31;;;2.96;70.26
53689;BME280;39583;54.682;30.662;2023-02-19T10:10:44;97664.91;;;2.88;70.79
53689;BME280;39583;54.682;30.662;2023-02-19T10:13:17;97655.63;;;2.97;71.31
53689;BME280;39583;54.682;30.662;2023-02-19T10:15:45;97674.44;;;3.03;71.56
53689;BME280;39583;54.682;30.662;2023-02-19T10:18:11;97672.59;;;3.03;71.94
53689;BME280;39583;54.682;30.662;2023-02-19T10:20:40;97671.09;;;3.14;71.39
53689;BME280;39583;54.682;30.662;2023-02-19T10:23:09;97678.34;;;3.25;72.26
53689;BME280;39583;54.682;30.662;2023-02-19T10:25:42;97669.63;;;3.18;73.28
53689;BME280;39583;54.682;30.662;2023-02-19T10:28:16;97675.41;;;3.08;73.96
53689;BME280;39583;54.682;30.662;2023-02-19T10:30:49;97678.28;;;3.07;74.23
53689;BME280;39583;54.682;30.662;2023-02-19T10:33:16;97678.56;;;3.23;74.94
53689;BME280;39583;54.682;30.662;2023-02-19T10:35:56;97686.72;;;3.53;75.34
53689;BME280;39583;54.682;30.662;2023-02-19T10:38:46;97656.34;;;3.61;75.56
53689;BME280;39583;54.682;30.662;2023-02-19T10:41:15;97666.31;;;3.91;75.60
53689;BME280;39583;54.682;30.662;2023-02-19T10:46:29;97689.16;;;3.80;74.89
53689;BME280;39583;54.682;30.662;2023-02-19T10:49:05;97682.50;;;3.64;74.96
53689;BME280;39583;54.682;30.662;2023-02-19T10:51:37;97678.63;;;3.67;75.09
53689;BME280;39583;54.682;30.662;2023-02-19T10:54:18;97688.00;;;3.69;73.26
53689;BME280;39583;54.682;30.662;2023-02-19T10:56:46;97668.91;;;3.54;72.57
53689;BME280;39583;54.682;30.662;2023-02-19T10:59:25;97689.06;;;3.43;70.76
53689;BME280;39583;54.682;30.662;2023-02-19T11:04:23;97684.88;;;3.54;68.68
53689;BME280;39583;54.682;30.662;2023-02-19T11:06:50;97685.25;;;3.58;68.58
53689;BME280;39583;54.682;30.662;2023-02-19T11:09:40;97687.03;;;3.64;70.22
53689;BME280;39583;54.682;30.662;2023-02-19T11:12:09;97700.00;;;3.78;68.59
53689;BME280;39583;54.682;30.662;2023-02-19T11:14:36;97690.22;;;3.72;67.65
53689;BME280;39583;54.682;30.662;2023-02-19T11:17:03;97704.03;;;3.63;67.50
53689;BME280;39583;54.682;30.662;2023-02-19T11:19:36;97695.56;;;3.72;69.23
53689;BME280;39583;54.682;30.662;2023-02-19T11:24:55;97688.47;;;3.84;65.82
53689;BME280;39583;54.682;30.662;2023-02-19T11:27:26;97700.69;;;3.92;67.72
53689;BME280;39583;54.682;30.662;2023-02-19T11:29:52;97707.34;;;3.83;67.04
53689;BME280;39583;54.682;30.662;2023-02-19T11:32:29;97707.59;;;3.75;66.16
53689;BME280;39583;54.682;30.662;2023-02-19T11:40:21;97707.75;;;4.05;65.75
53689;BME280;39583;54.682;30.662;2023-02-19T11:43:46;97695.66;;;4.02;66.32
53689;BME280;39583;54.682;30.662;2023-02-19T11:51:51;97702.91;;;4.13;67.71
53689;BME280;39583;54.682;30.662;2023-02-19T11:54:34;97707.19;;;3.96;66.63
53689;BME280;39583;54.682;30.662;2023-02-19T11:57:22;97699.34;;;3.83;65.76
53689;BME280;39583;54.682;30.662;2023-02-19T12:02:53;97695.66;;;3.59;64.24
53689;BME280;39583;54.682;30.662;2023-02-19T12:05:35;97698.81;;;3.49;65.66
53689;BME280;39583;54.682;30.662;2023-02-19T12:15:23;97697.28;;;3.10;65.01
53689;BME280;39583;54.682;30.662;2023-02-19T12:22:27;97696.69;;;3.83;67.16
53689;BME280;39583;54.682;30.662;2023-02-19T12:31:14;97693.28;;;4.12;66.91
53689;BME280;39583;54.682;30.662;2023-02-19T12:39:05;97702.00;;;3.83;66.26
53689;BME280;39583;54.682;30.662;2023-02-19T12:47:00;97702.75;;;3.90;65.50
53689;BME280;39583;54.682;30.662;2023-02-19T12:49:38;97703.50;;;3.79;66.19
53689;BME280;39583;54.682;30.662;2023-02-19T12:52:17;97707.69;;;3.43;65.72
53689;BME280;39583;54.682;30.662;2023-02-19T12:54:47;97659.13;;;2.60;66.00
53689;BME280;39583;54.682;30.662;2023-02-19T12:57:33;97722.91;;;2.60;65.97
53689;BME280;39583;54.682;30.662;2023-02-19T13:14:39;97734.00;;;1.46;69.50
53689;BME280;39583;54.682;30.662;2023-02-19T13:19:47;97742.34;;;1.43;70.88
53689;BME280;39583;54.682;30.662;2023-02-19T13:22:33;97745.81;;;1.50;71.48
53689;BME280;39583;54.682;30.662;2023-02-19T13:25:20;97756.44;;;1.43;71.04
53689;BME280;39583;54.682;30.662;2023-02-19T13:28:20;97761.94;;;1.42;70.69
53689;BME280;39583;54.682;30.662;2023-02-19T13:36:25;97739.84;;;0.95;73.51
53689;BME280;39583;54.682;30.662;2023-02-19T13:38:53;97748.22;;;0.92;73.82
53689;BME280;39583;54.682;30.662;2023-02-19T13:41:31;97741.28;;;0.98;74.67
53689;BME280;39583;54.682;30.662;2023-02-19T13:44:01;97733.13;;;0.99;74.90
53689;BME280;39583;54.682;30.662;2023-02-19T13:46:37;97736.59;;;1.00;75.67
53689;BME280;39583;54.682;30.662;2023-02-19T13:49:24;97731.25;;;0.86;75.59
53689;BME280;39583;54.682;30.662;2023-02-19T13:51:56;97737.75;;;0.77;75.99
53689;BME280;39583;54.682;30.662;2023-02-19T13:59:45;97736.16;;;0.83;76.63
53689;BME280;39583;54.682;30.662;2023-02-19T14:07:20;97730.91;;;1.16;76.61
53689;BME280;39583;54.682;30.662;2023-02-19T14:09:47;97732.16;;;1.33;76.15
53689;BME280;39583;54.682;30.662;2023-02-19T14:14:50;97707.06;;;1.62;74.60
53689;BME280;39583;54.682;30.662;2023-02-19T14:19:47;97725.41;;;1.77;71.03
53689;BME280;39583;54.682;30.662;2023-02-19T14:25:41;97735.81;;;1.65;71.34
53689;BME280;39583;54.682;30.662;2023-02-19T14:33:10;97737.69;;;1.45;68.68
53689;BME280;39583;54.682;30.662;2023-02-19T14:35:40;97736.25;;;1.36;68.11
53689;BME280;39583;54.682;30.662;2023-02-19T14:38:35;97742.75;;;1.27;67.81
53689;BME280;39583;54.682;30.662;2023-02-19T14:41:00;97753.53;;;1.12;69.08
53689;BME280;39583;54.682;30.662;2023-02-19T14:43:27;97744.34;;;0.95;69.77
53689;BME280;39583;54.682;30.662;2023-02-19T14:45:57;97766.72;;;0.79;69.71
53689;BME280;39583;54.682;30.662;2023-02-19T14:48:34;97762.56;;;0.63;70.52
53689;BME280;39583;54.682;30.662;2023-02-19T14:51:06;97764.59;;;0.54;71.34
53689;BME280;39583;54.682;30.662;2023-02-19T14:53:42;97779.47;;;0.62;71.96
53689;BME280;39583;54.682;30.662;2023-02-19T14:56:27;97759.34;;;0.68;71.95
53689;BME280;39583;54.682;30.662;2023-02-19T15:01:39;97745.28;;;0.26;72.76
53689;BME280;39583;54.682;30.662;2023-02-19T15:04:05;97750.06;;;0.03;73.31
53689;BME280;39583;54.682;30.662;2023-02-19T15:06:33;97752.38;;;-0.16;73.63
53689;BME280;39583;54.682;30.662;2023-02-19T15:09:05;97757.22;;;-0.26;74.68
53689;BME280;39583;54.682;30.662;2023-02-19T15:11:33;97747.97;;;-0.37;74.91
53689;BME280;39583;54.682;30.662;2023-02-19T15:14:06;97750.53;;;-0.50;75.58
53689;BME280;39583;54.682;30.662;2023-02-19T15:16:34;97747.56;;;-0.62;75.81
53689;BME280;39583;54.682;30.662;2023-02-19T15:19:05;97742.59;;;-0.71;76.69
53689;BME280;39583;54.682;30.662;2023-02-19T15:21:37;97749.28;;;-0.75;77.21
53689;BME280;39583;54.682;30.662;2023-02-19T15:24:05;97745.38;;;-0.79;77.23
53689;BME280;39583;54.682;30.662;2023-02-19T15:26:35;97756.75;;;-0.79;77.56
53689;BME280;39583;54.682;30.662;2023-02-19T15:29:08;97759.25;;;-0.77;77.80
53689;BME280;39583;54.682;30.662;2023-02-19T15:31:35;97750.66;;;-0.79;77.79
53689;BME280;39583;54.682;30.662;2023-02-19T15:34:01;97756.94;;;-0.80;77.80
53689;BME280;39583;54.682;30.662;2023-02-19T15:36:32;97749.84;;;-0.80;77.63
53689;BME280;39583;54.682;30.662;2023-02-19T15:39:01;97747.16;;;-0.86;77.35
53689;BME280;39583;54.682;30.662;2023-02-19T15:41:31;97748.34;;;-0.89;77.41
53689;BME280;39583;54.682;30.662;2023-02-19T15:46:28;97742.06;;;-0.88;77.66
53689;BME280;39583;54.682;30.662;2023-02-19T15:51:42;97739.84;;;-0.84;77.84
53689;BME280;39583;54.682;30.662;2023-02-19T15:54:29;97747.19;;;-0.80;78.38
53689;BME280;39583;54.682;30.662;2023-02-19T15:56:59;97740.09;;;-0.79;77.91
53689;BME280;39583;54.682;30.662;2023-02-19T15:59:30;97743.38;;;-0.77;77.87
53689;BME280;39583;54.682;30.662;2023-02-19T16:01:59;97738.97;;;-0.70;77.42
53689;BME280;39583;54.682;30.662;2023-02-19T16:04:26;97747.06;;;-0.72;76.70
53689;BME280;39583;54.682;30.662;2023-02-19T16:06:58;97743.44;;;-0.71;76.78
53689;BME280;39583;54.682;30.662;2023-02-19T16:12:01;97755.75;;;-0.56;76.30
53689;BME280;39583;54.682;30.662;2023-02-19T16:14:35;97754.09;;;-0.57;76.38
53689;BME280;39583;54.682;30.662;2023-02-19T16:17:13;97759.41;;;-0.57;75.86
53689;BME280;39583;54.682;30.662;2023-02-19T16:22:19;97760.47;;;-0.52;75.76
53689;BME280;39583;54.682;30.662;2023-02-19T16:24:51;97765.41;;;-0.42;75.95
53689;BME280;39583;54.682;30.662;2023-02-19T16:27:51;97762.84;;;-0.36;76.64
53689;BME280;39583;54.682;30.662;2023-02-19T16:33:18;97759.81;;;-0.33;77.07
53689;BME280;39583;54.682;30.662;2023-02-19T16:35:45;97747.72;;;-0.42;76.65
53689;BME280;39583;54.682;30.662;2023-02-19T16:38:15;97767.16;;;-0.28;76.52
53689;BME280;39583;54.682;30.662;2023-02-19T16:43:29;97765.78;;;-0.24;76.35
53689;BME280;39583;54.682;30.662;2023-02-19T16:45:56;97765.00;;;-0.18;76.97
53689;BME280;39583;54.682;30.662;2023-02-19T16:48:23;97777.00;;;-0.15;76.89
53689;BME280;39583;54.682;30.662;2023-02-19T16:50:49;97757.94;;;-0.11;76.39
53689;BME280;39583;54.682;30.662;2023-02-19T16:53:23;97777.69;;;-0.07;76.03
53689;BME280;39583;54.682;30.662;2023-02-19T16:55:53;97764.06;;;-0.04;75.97
53689;BME280;39583;54.682;30.662;2023-02-19T16:58:20;97777.53;;;0.02;75.88
53689;BME280;39583;54.682;30.662;2023-02-19T17:00:47;97762.84;;;-0.01;75.40
53689;BME280;39583;54.682;30.662;2023-02-19T17:03:15;97779.31;;;-0.06;75.60
53689;BME280;39583;54.682;30.662;2023-02-19T17:05:43;97779.91;;;-0.10;75.59
53689;BME280;39583;54.682;30.662;2023-02-19T17:08:32;97773.75;;;-0.17;75.85
53689;BME280;39583;54.682;30.662;2023-02-19T17:11:00;97776.16;;;-0.22;76.80
53689;BME280;39583;54.682;30.662;2023-02-19T17:13:28;97781.19;;;-0.27;76.70
53689;BME280;39583;54.682;30.662;2023-02-19T17:15:55;97781.16;;;-0.34;77.07
53689;BME280;39583;54.682;30.662;2023-02-19T17:18:22;97776.59;;;-0.40;77.23
53689;BME280;39583;54.682;30.662;2023-02-19T17:21:00;97781.91;;;-0.40;77.47
53689;BME280;39583;54.682;30.662;2023-02-19T17:23:27;97783.09;;;-0.43;78.10
53689;BME280;39583;54.682;30.662;2023-02-19T17:25:54;97775.16;;;-0.43;78.78
53689;BME280;39583;54.682;30.662;2023-02-19T17:28:20;97777.19;;;-0.45;78.93
53689;BME280;39583;54.682;30.662;2023-02-19T17:30:46;97779.22;;;-0.47;79.18
53689;BME280;39583;54.682;30.662;2023-02-19T17:33:13;97777.78;;;-0.49;79.34
53689;BME280;39583;54.682;30.662;2023-02-19T17:35:39;97773.69;;;-0.52;79.29
53689;BME280;39583;54.682;30.662;2023-02-19T17:38:09;97782.19;;;-0.56;79.97
53689;BME280;39583;54.682;30.662;2023-02-19T17:40:35;97785.25;;;-0.53;79.70
53689;BME280;39583;54.682;30.662;2023-02-19T17:43:03;97767.53;;;-0.59;79.90
53689;BME280;39583;54.682;30.662;2023-02-19T17:45:32;97777.78;;;-0.49;79.91
53689;BME280;39583;54.682;30.662;2023-02-19T17:47:58;97788.91;;;-0.54;80.33
53689;BME280;39583;54.682;30.662;2023-02-19T17:50:27;97781.34;;;-0.57;80.25
53689;BME280;39583;54.682;30.662;2023-02-19T17:52:55;97780.75;;;-0.59;81.06
53689;BME280;39583;54.682;30.662;2023-02-19T17:55:21;97785.00;;;-0.58;81.58
53689;BME280;39583;54.682;30.662;2023-02-19T17:57:48;97785.84;;;-0.57;81.32
53689;BME280;39583;54.682;30.662;2023-02-19T18:00:20;97782.13;;;-0.63;81.78
53689;BME280;39583;54.682;30.662;2023-02-19T18:02:47;97778.41;;;-0.69;81.77
53689;BME280;39583;54.682;30.662;2023-02-19T18:05:14;97771.69;;;-0.71;82.21
53689;BME280;39583;54.682;30.662;2023-02-19T18:07:42;97778.56;;;-0.77;82.33
53689;BME280;39583;54.682;30.662;2023-02-19T18:10:09;97776.25;;;-0.80;83.27
53689;BME280;39583;54.682;30.662;2023-02-19T18:12:38;97773.81;;;-0.81;84.63
53689;BME280;39583;54.682;30.662;2023-02-19T18:15:06;97772.25;;;-0.76;85.07
53689;BME280;39583;54.682;30.662;2023-02-19T18:17:33;97778.91;;;-0.80;84.96
53689;BME280;39583;54.682;30.662;2023-02-19T18:20:01;97772.19;;;-0.82;85.54
53689;BME280;39583;54.682;30.662;2023-02-19T18:22:31;97778.03;;;-0.87;85.62
53689;BME280;39583;54.682;30.662;2023-02-19T18:24:58;97768.03;;;-0.92;86.25
53689;BME280;39583;54.682;30.662;2023-02-19T18:27:25;97770.38;;;-1.03;86.29
53689;BME280;39583;54.682;30.662;2023-02-19T18:29:53;97786.91;;;-0.95;86.65
53689;BME280;39583;54.682;30.662;2023-02-19T18:32:21;97789.53;;;-0.95;87.33
53689;BME280;39583;54.682;30.662;2023-02-19T18:34:52;97773.69;;;-0.95;87.20
53689;BME280;39583;54.682;30.662;2023-02-19T18:37:19;97774.16;;;-0.91;87.51
53689;BME280;39583;54.682;30.662;2023-02-19T18:39:46;97774.38;;;-0.86;87.77
53689;BME280;39583;54.682;30.662;2023-02-19T18:42:13;97776.84;;;-0.84;87.71
53689;BME280;39583;54.682;30.662;2023-02-19T18:44:39;97770.75;;;-0.85;87.48
53689;BME280;39583;54.682;30.662;2023-02-19T18:47:07;97767.47;;;-0.87;87.50
53689;BME280;39583;54.682;30.662;2023-02-19T18:49:34;97771.13;;;-0.88;87.63
53689;BME280;39583;54.682;30.662;2023-02-19T18:52:01;97776.41;;;-0.88;87.71
53689;BME280;39583;54.682;30.662;2023-02-19T18:54:28;97771.13;;;-0.88;87.97
53689;BME280;39583;54.682;30.662;2023-02-19T18:56:55;97770.75;;;-0.85;87.66
53689;BME280;39583;54.682;30.662;2023-02-19T18:59:22;97772.19;;;-0.82;88.29
